Time;durP1;ratioP1;P1;durP2;ratioP2;P2;SDS_P1;SDS_P2;PMS_P1;PMS_P2;Temp;Humidity;BMP_temperature;BMP_pressure;BME280_temperature;BME280_humidity;BME280_pressure;Samples;Min_cycle;Max_cycle;Signal;HPM_P1;HPM_P2
2022/09/28 00:00:06;;;;;;;4.80;1.23;;;;;;;19.16;46.13;99523.59;5062698;28;20059;-67
2022/09/28 00:02:33;;;;;;;2.45;1.00;;;;;;;19.11;46.17;99516.16;5062345;28;20051;-64
2022/09/28 00:04:58;;;;;;;3.85;1.30;;;;;;;19.04;45.85;99507.22;5062426;28;20085;-65
2022/09/28 00:07:24;;;;;;;2.27;1.07;;;;;;;19.08;45.85;99519.13;5062646;28;20040;-67
2022/09/28 00:09:49;;;;;;;2.75;1.00;;;;;;;19.07;46.14;99522.72;5062272;28;20261;-65
2022/09/28 00:12:14;;;;;;;2.57;1.03;;;;;;;19.04;45.74;99523.06;5062638;28;20126;-65
2022/09/28 00:14:41;;;;;;;2.15;1.10;;;;;;;18.93;45.81;99508.38;5062291;28;20279;-66
2022/09/28 00:17:07;;;;;;;2.83;1.23;;;;;;;19.05;45.79;99518.63;5062337;28;20032;-65
2022/09/28 00:19:32;;;;;;;3.00;1.10;;;;;;;19.04;45.75;99517.78;5062240;28;20345;-63
2022/09/28 00:21:58;;;;;;;3.65;1.40;;;;;;;19.07;46.18;99521.91;5062008;28;20056;-65
2022/09/28 00:24:23;;;;;;;2.65;1.35;;;;;;;19.00;45.96;99509.34;5062832;28;20024;-65
2022/09/28 00:26:53;;;;;;;1.77;1.00;;;;;;;19.01;46.02;99507.56;5062244;28;20063;-66
2022/09/28 00:29:27;;;;;;;2.60;1.20;;;;;;;19.03;46.01;99522.25;5061873;28;20032;-65
2022/09/28 00:31:58;;;;;;;2.42;1.20;;;;;;;19.06;45.85;99514.97;5061906;28;20036;-64
2022/09/28 00:34:30;;;;;;;4.00;1.30;;;;;;;19.05;45.95;99513.34;5062324;28;20035;-65
2022/09/28 00:36:56;;;;;;;2.80;1.23;;;;;;;19.01;46.11;99508.38;5061180;28;20567;-63
2022/09/28 00:39:21;;;;;;;2.80;1.15;;;;;;;18.95;46.06;99498.47;5062090;28;20123;-65
2022/09/28 00:41:46;;;;;;;2.97;1.48;;;;;;;19.02;46.08;99498.63;5062022;28;20036;-68
2022/09/28 00:44:21;;;;;;;3.13;1.48;;;;;;;19.01;46.04;99503.09;5061755;28;20085;-64
2022/09/28 00:46:49;;;;;;;2.70;1.30;;;;;;;19.00;45.91;99500.63;5061741;28;20480;-64
2022/09/28 00:49:18;;;;;;;2.83;1.33;;;;;;;18.94;45.94;99488.88;5061752;28;20445;-64
2022/09/28 00:51:46;;;;;;;2.63;1.30;;;;;;;19.00;45.98;99500.63;5062029;28;20035;-64
2022/09/28 00:54:13;;;;;;;4.07;1.88;;;;;;;18.91;45.84;99483.94;5060993;28;20021;-65
2022/09/28 00:56:43;;;;;;;2.60;1.30;;;;;;;18.98;45.64;99499.97;5061921;28;20039;-64
2022/09/28 00:59:09;;;;;;;2.40;1.13;;;;;;;18.92;45.93;99492.69;5061289;28;20928;-65
2022/09/28 01:01:35;;;;;;;3.13;1.27;;;;;;;18.92;46.10;99484.78;5061849;28;20109;-64
2022/09/28 01:04:01;;;;;;;2.58;1.10;;;;;;;18.90;46.02;99479.66;5061704;28;20043;-64
2022/09/28 01:06:32;;;;;;;3.33;1.38;;;;;;;18.95;45.77;99484.44;5061760;28;20041;-65
2022/09/28 01:08:59;;;;;;;2.45;1.30;;;;;;;18.85;45.87;99464.31;5061154;28;20028;-63
2022/09/28 01:11:25;;;;;;;5.00;1.40;;;;;;;18.91;45.85;99469.91;5061331;28;20369;-64
2022/09/28 01:13:56;;;;;;;2.90;1.20;;;;;;;18.86;45.96;99473.03;5060818;28;20032;-64
2022/09/28 01:16:40;;;;;;;3.75;1.45;;;;;;;18.91;45.81;99483.13;5061329;28;20031;-64
2022/09/28 01:19:22;;;;;;;2.65;1.30;;;;;;;18.87;46.15;99481.78;5061522;28;20044;-64
2022/09/28 01:21:58;;;;;;;3.25;1.33;;;;;;;18.84;45.80;99482.94;5061064;28;20624;-64
2022/09/28 01:24:45;;;;;;;2.50;1.25;;;;;;;18.83;45.98;99487.38;5061501;28;20456;-65
2022/09/28 01:27:27;;;;;;;4.97;1.50;;;;;;;18.89;45.98;99500.94;5061383;28;20562;-64
2022/09/28 01:29:58;;;;;;;4.00;1.20;;;;;;;18.90;45.80;99502.56;5061370;28;20041;-65
2022/09/28 01:32:29;;;;;;;4.32;1.40;;;;;;;18.90;46.13;99502.56;5061027;28;20024;-63
2022/09/28 01:35:03;;;;;;;2.67;1.20;;;;;;;18.88;45.75;99502.72;5060943;28;20035;-63
2022/09/28 01:37:57;;;;;;;3.15;1.33;;;;;;;18.82;46.12;99480.44;5061610;28;20043;-64
2022/09/28 01:40:25;;;;;;;3.47;1.40;;;;;;;18.81;46.04;99480.59;5060942;28;20468;-64
2022/09/28 01:42:58;;;;;;;4.05;1.50;;;;;;;18.84;46.12;99496.97;5061122;28;21019;-63
2022/09/28 01:45:29;;;;;;;3.25;1.80;;;;;;;18.90;46.08;99506.06;5060487;28;20029;-65
2022/09/28 01:47:59;;;;;;;2.60;1.30;;;;;;;18.82;45.75;99496.28;5061019;28;20120;-63
2022/09/28 01:50:28;;;;;;;3.25;1.70;;;;;;;18.90;45.82;99510.50;5060913;28;20035;-63
2022/09/28 01:52:59;;;;;;;7.38;1.40;;;;;;;18.87;45.99;99511.66;5060573;28;20345;-64
2022/09/28 01:55:31;;;;;;;2.90;1.40;;;;;;;18.75;45.93;99487.31;5061236;28;20032;-64
2022/09/28 01:58:12;;;;;;;3.20;1.70;;;;;;;18.86;46.17;99499.44;5060930;28;20078;-63
2022/09/28 02:00:43;;;;;;;3.28;1.60;;;;;;;18.80;46.08;99495.63;5061177;28;20067;-66
2022/09/28 02:03:15;;;;;;;3.45;1.58;;;;;;;18.83;46.17;99500.56;5060964;28;20041;-64
2022/09/28 02:05:47;;;;;;;4.15;1.77;;;;;;;18.79;45.74;99487.84;5060888;28;20086;-64
2022/09/28 02:08:28;;;;;;;4.57;1.63;;;;;;;18.76;46.03;99483.72;5060788;28;20039;-66
2022/09/28 02:11:03;;;;;;;3.20;1.45;;;;;;;18.80;45.94;99489.50;5061199;28;20748;-65
2022/09/28 02:13:39;;;;;;;4.30;1.42;;;;;;;18.85;45.84;99497.81;5060742;28;20032;-64
2022/09/28 02:16:18;;;;;;;3.13;1.40;;;;;;;18.80;46.14;99492.13;5060832;28;20021;-65
2022/09/28 02:18:44;;;;;;;2.83;1.50;;;;;;;18.84;45.83;99499.59;5060939;28;20021;-66
2022/09/28 02:21:21;;;;;;;3.92;1.55;;;;;;;18.79;45.80;99493.94;5060241;28;20047;-64
2022/09/28 02:24:19;;;;;;;3.58;1.70;;;;;;;18.82;45.88;99501.56;5060985;28;20029;-65
2022/09/28 02:26:48;;;;;;;4.15;1.55;;;;;;;18.83;46.01;99500.56;5060191;28;20838;-64
2022/09/28 02:29:13;;;;;;;3.90;1.60;;;;;;;18.82;45.86;99506.81;5060596;28;20028;-64
2022/09/28 02:31:38;;;;;;;4.28;1.70;;;;;;;18.80;45.79;99494.78;5059739;28;20033;-66
2022/09/28 02:34:04;;;;;;;2.70;1.30;;;;;;;18.74;45.72;99492.78;5060815;28;20063;-66
2022/09/28 02:36:30;;;;;;;3.33;1.40;;;;;;;18.75;45.78;99491.78;5060573;28;20029;-65
2022/09/28 02:38:56;;;;;;;3.33;1.48;;;;;;;18.78;45.75;99492.28;5060592;28;20036;-63
2022/09/28 02:41:55;;;;;;;3.22;1.48;;;;;;;18.79;45.71;99493.13;5061138;28;20084;-66
2022/09/28 02:44:46;;;;;;;3.47;1.60;;;;;;;18.78;45.85;99500.22;5061912;28;20573;-65
2022/09/28 02:47:27;;;;;;;3.78;1.65;;;;;;;18.78;45.68;99499.38;5062004;28;20087;-67
2022/09/28 02:50:24;;;;;;;2.85;1.30;;;;;;;18.75;45.65;99495.25;5061494;28;20514;-65
2022/09/28 02:53:20;;;;;;;3.83;1.38;;;;;;;18.68;45.75;99489.78;5057087;28;20049;-66
2022/09/28 02:56:15;;;;;;;3.08;1.30;;;;;;;18.67;45.80;99496.06;5060499;28;20093;-64
2022/09/28 02:59:18;;;;;;;3.55;1.35;;;;;;;18.73;45.68;99505.16;5063836;28;20034;-64
2022/09/28 03:02:01;;;;;;;2.35;1.20;;;;;;;18.70;45.69;99510.75;5064013;28;20041;-67
2022/09/28 03:04:43;;;;;;;2.70;1.20;;;;;;;18.72;45.64;99505.31;5064007;28;20032;-63
2022/09/28 03:07:14;;;;;;;3.35;1.40;;;;;;;18.71;45.71;99515.03;5063680;28;20028;-64
2022/09/28 03:09:51;;;;;;;2.65;1.15;;;;;;;18.70;45.48;99516.03;5064225;28;20362;-66
2022/09/28 03:12:19;;;;;;;3.10;1.23;;;;;;;18.67;45.62;99509.28;5063915;28;20063;-65
2022/09/28 03:14:45;;;;;;;4.20;1.40;;;;;;;18.63;45.65;99504.47;5063595;28;20032;-65
2022/09/28 03:17:10;;;;;;;4.03;1.20;;;;;;;18.61;45.67;99499.34;5063165;28;20491;-64
2022/09/28 03:19:36;;;;;;;4.53;1.30;;;;;;;18.61;45.61;99502.00;5063409;28;20036;-64
2022/09/28 03:22:01;;;;;;;2.70;1.10;;;;;;;18.66;45.39;99510.25;5063450;28;20107;-65
2022/09/28 03:24:26;;;;;;;2.90;1.20;;;;;;;18.68;45.75;99508.25;5063654;28;20028;-66
2022/09/28 03:26:51;;;;;;;2.85;1.25;;;;;;;18.61;45.52;99494.06;5063354;28;20043;-64
2022/09/28 03:29:19;;;;;;;4.32;1.40;;;;;;;18.62;45.53;99500.16;5063520;28;20369;-63
2022/09/28 03:31:44;;;;;;;2.72;1.20;;;;;;;18.62;45.70;99493.06;5063327;28;20025;-64
2022/09/28 03:34:09;;;;;;;3.13;1.30;;;;;;;18.62;45.42;99492.25;5063293;28;20024;-65
2022/09/28 03:36:35;;;;;;;3.15;1.30;;;;;;;18.63;45.49;99491.28;5063503;28;20423;-64
2022/09/28 03:39:00;;;;;;;4.15;1.50;;;;;;;18.66;45.61;99504.16;5063259;28;20024;-65
2022/09/28 03:41:29;;;;;;;2.40;1.10;;;;;;;18.59;45.46;99490.75;5063382;28;20075;-65
2022/09/28 03:43:54;;;;;;;3.22;1.10;;;;;;;18.67;45.39;99511.91;5063128;28;20535;-64
2022/09/28 03:46:20;;;;;;;2.85;1.10;;;;;;;18.61;45.45;99503.78;5063233;28;20099;-67
2022/09/28 03:48:45;;;;;;;2.88;1.10;;;;;;;18.58;45.73;99502.31;5062777;28;20841;-65
2022/09/28 03:51:11;;;;;;;4.28;1.30;;;;;;;18.62;45.51;99510.72;5063254;28;20479;-67
2022/09/28 03:53:37;;;;;;;2.25;0.95;;;;;;;18.63;45.57;99512.38;5062914;28;20464;-65
2022/09/28 03:56:09;;;;;;;2.92;1.20;;;;;;;18.58;45.52;99512.03;5063219;28;20033;-65
2022/09/28 03:58:35;;;;;;;2.42;1.00;;;;;;;18.42;45.35;99481.97;5062975;28;20056;-64
2022/09/28 04:01:05;;;;;;;3.58;1.10;;;;;;;18.62;45.45;99508.09;5063017;28;20025;-64
2022/09/28 04:03:30;;;;;;;1.80;0.90;;;;;;;18.61;45.46;99514.34;5062408;28;20036;-64
2022/09/28 04:05:56;;;;;;;2.55;0.98;;;;;;;18.57;45.42;99505.94;5062564;28;20025;-63
2022/09/28 04:08:21;;;;;;;2.60;1.00;;;;;;;18.60;45.23;99508.25;5062447;28;20107;-65
2022/09/28 04:10:46;;;;;;;2.95;1.08;;;;;;;18.62;45.43;99518.66;5062498;28;20025;-67
2022/09/28 04:13:12;;;;;;;1.85;0.82;;;;;;;18.54;45.67;99503.59;5062395;28;20457;-64
2022/09/28 04:15:38;;;;;;;2.13;0.95;;;;;;;18.56;45.32;99512.19;5062507;28;20036;-64
2022/09/28 04:18:10;;;;;;;3.47;1.00;;;;;;;18.56;45.34;99511.38;5062365;28;20040;-64
2022/09/28 04:20:36;;;;;;;1.67;0.80;;;;;;;18.55;45.37;99501.78;5062669;28;20036;-64
2022/09/28 04:23:01;;;;;;;2.17;1.00;;;;;;;18.55;45.53;99505.25;5062406;28;20067;-66
2022/09/28 04:25:26;;;;;;;2.35;1.00;;;;;;;18.55;45.27;99509.69;5062479;28;20039;-65
2022/09/28 04:30:35;;;;;;;2.47;0.83;;;;;;;18.53;45.54;99498.47;5062323;28;20491;-63
2022/09/28 04:33:00;;;;;;;2.45;1.10;;;;;;;18.53;45.58;99496.66;5062203;28;20056;-64
2022/09/28 04:35:26;;;;;;;2.07;0.93;;;;;;;18.55;45.40;99504.41;5062291;28;20033;-65
2022/09/28 04:37:51;;;;;;;2.37;0.90;;;;;;;18.60;45.33;99507.44;5061966;28;20264;-64
2022/09/28 04:40:16;;;;;;;1.98;0.82;;;;;;;18.54;45.50;99497.50;5062041;28;20368;-65
2022/09/28 04:42:41;;;;;;;1.77;0.80;;;;;;;18.57;45.34;99503.28;5061956;28;20036;-63
2022/09/28 04:45:07;;;;;;;2.17;0.80;;;;;;;18.52;45.49;99496.81;5061910;28;20025;-64
2022/09/28 04:47:33;;;;;;;2.30;0.95;;;;;;;18.57;45.35;99505.94;5061506;28;20024;-63
2022/09/28 04:49:58;;;;;;;1.75;0.88;;;;;;;18.52;45.50;99499.47;5061917;28;20585;-64
2022/09/28 04:52:25;;;;;;;2.05;0.73;;;;;;;18.51;45.70;99503.91;5061846;28;20028;-65
2022/09/28 04:54:50;;;;;;;1.63;0.70;;;;;;;18.56;45.49;99512.19;5061651;28;20029;-66
2022/09/28 04:57:16;;;;;;;1.40;0.80;;;;;;;18.55;45.43;99509.69;5061855;28;20037;-65
2022/09/28 04:59:41;;;;;;;1.70;0.73;;;;;;;18.51;45.62;99508.38;5061868;28;20093;-65
2022/09/28 05:02:06;;;;;;;1.48;0.60;;;;;;;18.57;45.32;99518.31;5061967;28;20491;-67
2022/09/28 05:04:31;;;;;;;1.30;0.67;;;;;;;18.56;45.39;99524.56;5061759;28;20872;-65
2022/09/28 05:06:57;;;;;;;2.78;0.77;;;;;;;18.51;45.04;99517.09;5061684;28;20269;-65
2022/09/28 05:09:22;;;;;;;1.90;0.73;;;;;;;18.52;45.14;99521.41;5061883;28;21097;-64
2022/09/28 05:11:49;;;;;;;1.58;0.60;;;;;;;18.49;45.02;99514.63;5061595;28;20281;-64
2022/09/28 05:14:15;;;;;;;1.10;0.90;;;;;;;18.56;45.11;99522.72;5061485;28;20051;-64
2022/09/28 05:16:41;;;;;;;1.50;0.70;;;;;;;18.54;45.41;99535.25;5061406;28;20792;-65
2022/09/28 05:19:06;;;;;;;1.58;0.88;;;;;;;18.53;44.92;99530.16;5061232;28;20029;-64
2022/09/28 05:21:31;;;;;;;2.38;0.80;;;;;;;18.46;45.05;99517.59;5061109;28;20060;-64
2022/09/28 05:23:57;;;;;;;3.35;0.73;;;;;;;18.46;45.13;99520.22;5061675;28;20036;-65
2022/09/28 05:26:23;;;;;;;3.13;0.70;;;;;;;18.44;45.17;99513.47;5061215;28;20042;-64
2022/09/28 05:28:48;;;;;;;2.72;0.70;;;;;;;18.52;45.22;99531.13;5061549;28;20020;-65
2022/09/28 05:31:13;;;;;;;2.53;0.70;;;;;;;18.45;45.15;99526.50;5061089;28;20033;-63
2022/09/28 05:33:39;;;;;;;1.10;0.60;;;;;;;18.51;45.08;99530.31;5061623;28;20044;-64
2022/09/28 05:36:08;;;;;;;1.92;0.60;;;;;;;18.47;45.21;99521.06;5061345;28;20101;-65
2022/09/28 05:38:33;;;;;;;2.38;0.80;;;;;;;18.53;45.11;99527.50;5061204;28;20033;-64
2022/09/28 05:40:59;;;;;;;1.95;0.60;;;;;;;18.46;44.99;99522.03;5061264;28;20376;-66
2022/09/28 05:43:24;;;;;;;1.70;0.73;;;;;;;18.52;45.01;99525.84;5061275;28;20032;-66
2022/09/28 05:45:49;;;;;;;4.32;0.82;;;;;;;18.39;45.68;99505.19;5059836;28;20274;-66
2022/09/28 05:48:15;;;;;;;2.20;0.77;;;;;;;18.51;46.49;99526.84;5061113;28;20060;-63
2022/09/28 05:50:40;;;;;;;3.28;1.00;;;;;;;18.41;46.49;99514.59;5061322;28;20028;-64
2022/09/28 05:53:07;;;;;;;3.83;0.80;;;;;;;18.43;46.55;99511.81;5060920;28;20196;-66
2022/09/28 05:55:34;;;;;;;5.68;1.38;;;;;;;18.43;46.75;99517.91;5060748;28;20261;-65
2022/09/28 05:58:01;;;;;;;7.38;1.38;;;;;;;18.43;46.60;99525.00;5061083;28;20383;-64
2022/09/28 06:00:27;;;;;;;6.20;1.23;;;;;;;18.49;46.83;99541.00;5060768;28;20025;-66
2022/09/28 06:02:59;;;;;;;3.90;1.00;;;;;;;18.53;46.79;99544.16;5061054;28;20602;-65
2022/09/28 06:05:26;;;;;;;2.90;1.05;;;;;;;18.53;46.94;99530.97;5060919;28;20028;-67
2022/09/28 06:07:54;;;;;;;4.28;0.82;;;;;;;18.57;46.67;99534.13;5061027;28;20114;-67
2022/09/28 06:10:19;;;;;;;5.30;1.20;;;;;;;18.60;46.50;99532.00;5061275;28;20039;-66
2022/09/28 06:12:46;;;;;;;3.07;0.87;;;;;;;18.64;46.72;99532.50;5060625;28;20025;-67
2022/09/28 06:15:13;;;;;;;5.97;1.02;;;;;;;18.67;46.42;99535.66;5060811;28;20257;-68
2022/09/28 06:17:38;;;;;;;4.13;0.93;;;;;;;18.79;46.52;99551.19;5059622;28;20072;-70
2022/09/28 06:20:04;;;;;;;4.13;1.00;;;;;;;18.78;46.71;99552.19;5059808;28;20129;-69
2022/09/28 06:22:29;;;;;;;4.25;0.80;;;;;;;18.85;46.66;99559.31;5060248;28;20517;-68
2022/09/28 06:24:54;;;;;;;4.70;0.97;;;;;;;18.83;46.58;99544.59;5060226;28;20075;-64
2022/09/28 06:27:20;;;;;;;3.78;1.08;;;;;;;18.91;46.69;99555.22;5058402;28;20269;-63
2022/09/28 06:29:45;;;;;;;2.90;0.90;;;;;;;18.93;46.50;99553.25;5059549;28;20040;-63
2022/09/28 06:32:12;;;;;;;3.70;1.05;;;;;;;19.04;46.61;99552.09;5062842;28;20038;-64
2022/09/28 06:34:38;;;;;;;2.00;0.80;;;;;;;19.03;46.29;99551.28;5064152;28;20029;-69
2022/09/28 06:37:03;;;;;;;9.32;2.00;;;;;;;18.96;43.50;99555.56;5063516;28;20027;-68
2022/09/28 06:39:28;;;;;;;5.18;1.88;;;;;;;18.85;44.48;99555.88;5064406;28;20423;-63
2022/09/28 06:41:54;;;;;;;4.60;1.30;;;;;;;18.84;45.54;99557.66;5064216;28;20044;-65
2022/09/28 06:44:19;;;;;;;4.05;1.30;;;;;;;18.83;45.92;99557.78;5061692;28;20028;-70
2022/09/28 06:46:44;;;;;;;5.72;1.00;;;;;;;18.97;45.96;99569.59;5063830;28;20036;-68
2022/09/28 06:49:10;;;;;;;4.57;1.27;;;;;;;19.07;45.99;99575.53;5063113;28;20104;-69
2022/09/28 06:51:35;;;;;;;3.72;1.10;;;;;;;19.15;45.56;99574.75;5063733;28;20656;-70
2022/09/28 06:54:01;;;;;;;4.28;1.20;;;;;;;19.16;45.58;99560.56;5063541;28;20115;-69
2022/09/28 06:56:27;;;;;;;4.43;1.30;;;;;;;19.29;45.54;99579.38;5063800;28;20081;-69
2022/09/28 06:58:52;;;;;;;3.20;1.10;;;;;;;19.31;45.58;99568.66;5063146;28;20028;-69
2022/09/28 07:01:18;;;;;;;3.88;1.00;;;;;;;19.36;45.28;99561.09;5063406;28;20376;-70
2022/09/28 07:03:43;;;;;;;2.30;0.90;;;;;;;19.45;45.58;99572.47;5063413;28;20040;-69
2022/09/28 07:06:10;;;;;;;2.93;0.87;;;;;;;19.47;45.19;99565.22;5063342;28;20036;-67
2022/09/28 07:08:36;;;;;;;1.77;0.80;;;;;;;19.58;45.36;99586.88;5063204;28;20265;-67
2022/09/28 07:11:05;;;;;;;3.80;0.73;;;;;;;19.57;45.28;99579.09;5063073;28;20052;-71
2022/09/28 07:13:31;;;;;;;7.78;3.05;;;;;;;19.64;44.65;99593.28;5063121;28;20037;-70
2022/09/28 07:15:58;;;;;;;7.10;2.03;;;;;;;19.55;44.42;99578.41;5062949;28;20024;-73
2022/09/28 07:18:25;;;;;;;5.78;1.35;;;;;;;19.42;44.90;99567.53;5063190;28;20032;-66
2022/09/28 07:20:50;;;;;;;4.57;1.27;;;;;;;19.49;45.46;99585.19;5062855;28;20854;-68
2022/09/28 07:23:17;;;;;;;3.85;1.20;;;;;;;19.45;45.96;99575.94;5063224;28;20044;-70
2022/09/28 07:25:44;;;;;;;4.07;1.13;;;;;;;19.46;45.88;99593.44;5062971;28;20025;-67
2022/09/28 07:28:10;;;;;;;4.93;1.20;;;;;;;19.39;46.38;99582.72;5062794;28;20067;-71
2022/09/28 07:30:36;;;;;;;3.90;1.15;;;;;;;19.48;46.66;99601.22;5062077;28;20486;-67
2022/09/28 07:33:07;;;;;;;3.05;1.00;;;;;;;19.48;46.70;99586.19;5062278;28;20044;-67
2022/09/28 07:35:35;;;;;;;5.80;1.23;;;;;;;19.50;47.09;99596.59;5062904;28;20028;-66
2022/09/28 07:38:03;;;;;;;3.55;1.13;;;;;;;19.47;47.24;99594.28;5062818;28;20116;-66
2022/09/28 07:43:15;;;;;;;3.92;1.15;;;;;;;19.53;47.64;99609.47;5062380;28;20102;-68
2022/09/28 07:45:42;;;;;;;3.30;1.20;;;;;;;19.47;48.22;99588.97;5063174;28;20036;-68
2022/09/28 07:48:07;;;;;;;3.40;1.17;;;;;;;19.49;48.43;99597.59;5063344;28;20516;-68
2022/09/28 07:50:33;;;;;;;4.18;1.00;;;;;;;19.51;48.98;99600.91;5063434;28;20072;-67
2022/09/28 07:52:59;;;;;;;4.40;1.50;;;;;;;19.52;49.01;99606.00;5063016;28;20027;-66
2022/09/28 07:55:24;;;;;;;6.43;1.25;;;;;;;19.54;49.50;99609.31;5062883;28;20028;-65
2022/09/28 07:57:59;;;;;;;5.13;1.10;;;;;;;19.57;49.82;99609.00;5063276;28;20924;-68
2022/09/28 08:00:25;;;;;;;4.72;1.10;;;;;;;19.54;49.48;99603.22;5063049;28;20032;-68
2022/09/28 08:02:51;;;;;;;5.07;1.20;;;;;;;19.57;49.21;99611.63;5061307;28;20097;-68
2022/09/28 08:05:16;;;;;;;2.50;1.10;;;;;;;19.59;49.72;99614.09;5062500;28;20542;-66
2022/09/28 08:07:42;;;;;;;4.53;1.20;;;;;;;19.62;50.75;99616.44;5062865;28;20036;-66
2022/09/28 08:10:08;;;;;;;3.97;1.20;;;;;;;19.59;50.22;99606.19;5062764;28;20036;-68
2022/09/28 08:12:33;;;;;;;3.22;1.02;;;;;;;19.67;49.97;99611.47;5063915;28;20040;-69
2022/09/28 08:14:59;;;;;;;4.93;1.10;;;;;;;19.69;50.75;99630.66;5063320;28;20384;-70
2022/09/28 08:17:24;;;;;;;12.73;1.40;;;;;;;19.70;50.87;99623.53;5063593;28;20060;-69
2022/09/28 08:22:33;;;;;;;3.03;1.33;;;;;;;19.61;50.61;99617.41;5063098;28;20071;-71
2022/09/28 08:24:58;;;;;;;4.53;1.30;;;;;;;19.62;50.59;99623.53;5062734;28;20040;-71
2022/09/28 08:27:24;;;;;;;4.57;1.17;;;;;;;19.65;50.85;99618.75;5061905;28;20032;-70
2022/09/28 08:29:49;;;;;;;4.65;1.20;;;;;;;19.65;50.74;99618.75;5059675;28;20043;-66
2022/09/28 08:32:16;;;;;;;3.70;1.13;;;;;;;19.75;50.36;99631.78;5060866;28;20941;-66
2022/09/28 08:34:41;;;;;;;5.53;1.17;;;;;;;19.74;50.47;99633.63;5061517;28;20265;-71
2022/09/28 08:37:11;;;;;;;6.07;1.63;;;;;;;19.79;50.71;99637.59;5059679;28;20032;-68
2022/09/28 08:39:36;;;;;;;4.15;1.05;;;;;;;19.74;51.15;99625.69;5061411;28;20032;-70
2022/09/28 08:42:08;;;;;;;4.63;1.10;;;;;;;19.79;50.91;99637.59;5061603;28;20408;-69
2022/09/28 08:44:56;;;;;;;5.85;1.58;;;;;;;19.77;51.29;99645.69;5061591;28;20071;-68
2022/09/28 08:50:19;;;;;;;4.97;1.30;;;;;;;19.82;51.44;99637.28;5060763;28;20030;-66
2022/09/28 08:52:50;;;;;;;7.13;1.42;;;;;;;19.85;52.01;99643.09;5060881;28;20032;-66
2022/09/28 08:55:26;;;;;;;7.32;1.40;;;;;;;19.89;52.55;99633.00;5061328;28;20620;-69
2022/09/28 08:58:01;;;;;;;4.88;1.20;;;;;;;19.99;51.96;99656.63;5061195;28;20033;-68
2022/09/28 09:00:41;;;;;;;5.40;1.50;;;;;;;19.98;51.81;99641.75;5061264;28;20382;-75
2022/09/28 09:03:12;;;;;;;5.65;1.20;;;;;;;20.03;52.02;99645.56;5061366;28;20028;-78
2022/09/28 09:05:50;;;;;;;5.43;1.50;;;;;;;20.02;51.59;99651.81;5061672;28;20362;-71
2022/09/28 09:08:45;;;;;;;5.07;1.10;;;;;;;20.02;51.44;99659.75;5059687;28;20031;-68
2022/09/28 09:11:13;;;;;;;;;;;;;;;20.05;51.43;99658.59;5024045;28;20044;-74
2022/09/28 09:13:55;;;;;;;6.90;2.00;;;;;;;20.02;50.21;99659.75;5061030;28;19935;-69
2022/09/28 09:16:33;;;;;;;5.72;1.33;;;;;;;20.06;50.85;99670.81;5060673;28;20119;-69
2022/09/28 09:18:58;;;;;;;4.30;1.45;;;;;;;20.04;50.78;99680.75;5061174;28;20024;-70
2022/09/28 09:21:45;;;;;;;5.95;1.10;;;;;;;19.97;50.67;99666.56;5060348;28;20499;-70
2022/09/28 09:24:23;;;;;;;3.65;1.20;;;;;;;19.95;50.56;99666.72;5061116;28;20047;-73
2022/09/28 09:27:05;;;;;;;3.40;1.55;;;;;;;19.96;50.33;99663.06;5060667;28;20143;-78
2022/09/28 09:30:05;;;;;;;4.85;1.77;;;;;;;20.07;48.89;99675.94;5060327;28;20115;-76
2022/09/28 09:32:52;;;;;;;7.32;1.60;;;;;;;19.99;49.33;99683.88;5060578;28;20075;-75
2022/09/28 09:35:55;;;;;;;5.13;2.08;;;;;;;19.97;49.81;99679.78;5060539;28;20039;-75
2022/09/28 09:38:43;;;;;;;6.20;1.38;;;;;;;19.94;50.26;99681.72;5060787;28;20104;-73
2022/09/28 09:41:20;;;;;;;5.05;1.70;;;;;;;19.79;49.92;99656.94;5060577;28;20034;-72
2022/09/28 09:43:45;;;;;;;3.30;1.30;;;;;;;19.89;50.43;99686.69;5060388;28;20028;-71
2022/09/28 09:46:22;;;;;;;4.63;1.20;;;;;;;19.88;50.41;99690.31;5060693;28;20526;-71
2022/09/28 09:49:01;;;;;;;4.20;1.33;;;;;;;19.85;50.37;99685.38;5060606;28;20032;-71
2022/09/28 09:52:17;;;;;;;6.00;1.60;;;;;;;19.92;50.12;99696.13;5060450;28;20123;-75
2022/09/28 09:54:54;;;;;;;4.25;1.17;;;;;;;19.87;48.62;99686.03;5047447;28;20490;-74
2022/09/28 09:58:03;;;;;;;5.45;1.45;;;;;;;19.89;48.07;99686.69;5060427;28;20033;-72
2022/09/28 10:00:28;;;;;;;4.22;1.40;;;;;;;19.80;47.95;99679.75;5060439;28;20111;-72
2022/09/28 10:02:56;;;;;;;3.88;1.30;;;;;;;19.76;48.50;99689.00;5060670;28;20516;-68
2022/09/28 10:05:26;;;;;;;4.63;1.45;;;;;;;19.71;49.48;99678.88;5060802;28;20487;-70
2022/09/28 10:08:11;;;;;;;3.80;1.17;;;;;;;19.73;49.47;99689.28;5064485;28;20104;-68
2022/09/28 10:10:47;;;;;;;4.00;1.20;;;;;;;19.51;49.54;99656.38;5064398;28;20082;-69
2022/09/28 10:13:13;;;;;;;7.97;1.10;;;;;;;19.63;49.73;99678.03;5064123;28;20040;-67
2022/09/28 10:15:40;;;;;;;4.00;1.13;;;;;;;19.65;50.03;99679.53;5062740;28;20028;-70
2022/09/28 10:18:11;;;;;;;4.43;1.10;;;;;;;19.77;49.87;99695.09;5063962;28;20029;-70
2022/09/28 10:20:38;;;;;;;3.67;1.00;;;;;;;19.75;49.91;99684.66;5064699;28;20839;-71
2022/09/28 10:23:10;;;;;;;5.15;1.20;;;;;;;19.77;49.88;99681.88;5060698;28;20048;-71
2022/09/28 10:25:37;;;;;;;4.60;1.13;;;;;;;19.86;49.63;99689.66;5063765;28;20040;-73
2022/09/28 10:28:05;;;;;;;3.22;1.00;;;;;;;19.93;49.45;99681.91;5064584;28;20082;-75
2022/09/28 10:30:40;;;;;;;4.10;0.80;;;;;;;19.99;49.38;99693.66;5063336;28;20025;-72
2022/09/28 10:33:27;;;;;;;2.67;0.85;;;;;;;19.96;49.43;99675.47;5063729;28;20036;-70
2022/09/28 10:35:53;;;;;;;4.65;1.20;;;;;;;19.96;49.56;99673.63;5064283;28;21193;-72
2022/09/28 10:38:18;;;;;;;3.47;1.10;;;;;;;20.00;49.40;99674.97;5064693;28;20112;-69
2022/09/28 10:40:55;;;;;;;3.90;1.13;;;;;;;20.01;49.49;99663.41;5063589;28;20036;-73
2022/09/28 10:43:30;;;;;;;3.90;1.05;;;;;;;20.05;49.49;99670.00;5064666;28;20025;-70
2022/09/28 10:46:13;;;;;;;4.25;1.10;;;;;;;20.09;49.33;99679.28;5063519;28;20094;-71
2022/09/28 10:48:46;;;;;;;2.63;1.00;;;;;;;20.09;49.56;99671.34;5064006;28;20039;-68
2022/09/28 10:51:12;;;;;;;3.20;0.90;;;;;;;20.08;49.48;99674.97;5063440;28;20064;-71
2022/09/28 10:53:38;;;;;;;2.97;0.98;;;;;;;20.03;49.56;99668.53;5063426;28;20499;-67
2022/09/28 10:56:09;;;;;;;2.30;1.15;;;;;;;20.00;49.45;99660.94;5063417;28;20032;-66
2022/09/28 10:58:39;;;;;;;3.05;1.00;;;;;;;20.04;49.35;99676.28;5063324;28;20024;-69
2022/09/28 11:01:11;;;;;;;2.42;0.90;;;;;;;19.96;49.43;99665.69;5063271;28;20103;-68
2022/09/28 11:03:51;;;;;;;2.88;0.90;;;;;;;19.90;49.59;99669.84;5063667;28;20064;-68
2022/09/28 11:06:24;;;;;;;2.90;1.00;;;;;;;19.97;49.00;99674.47;5063476;28;20120;-66
2022/09/28 11:08:50;;;;;;;5.07;1.30;;;;;;;19.91;49.39;99674.13;5063092;28;20108;-70
2022/09/28 11:11:18;;;;;;;3.65;1.15;;;;;;;19.86;49.47;99675.63;5063084;28;20146;-72
2022/09/28 11:13:50;;;;;;;3.92;1.27;;;;;;;19.85;49.21;99672.16;5063114;28;20052;-67
2022/09/28 11:16:27;;;;;;;4.20;0.90;;;;;;;19.84;49.48;99665.22;5062898;28;20032;-66
2022/09/28 11:18:54;;;;;;;4.78;1.10;;;;;;;19.93;49.36;99680.09;5062208;28;20111;-68
2022/09/28 11:21:30;;;;;;;3.75;0.98;;;;;;;19.88;49.65;99666.53;5063029;28;20102;-67
2022/09/28 11:23:56;;;;;;;2.38;0.98;;;;;;;19.95;49.90;99682.56;5062764;28;20480;-67
2022/09/28 11:26:22;;;;;;;4.07;1.10;;;;;;;19.94;49.61;99678.28;5062785;28;20036;-69
2022/09/28 11:28:51;;;;;;;4.32;1.10;;;;;;;19.90;49.51;99666.34;5062892;28;20032;-68
2022/09/28 11:31:27;;;;;;;4.45;0.93;;;;;;;19.91;49.40;99666.19;5062584;28;20036;-67
2022/09/28 11:34:06;;;;;;;4.15;1.00;;;;;;;19.90;49.50;99663.72;5062944;28;20426;-69
2022/09/28 11:36:52;;;;;;;3.08;0.80;;;;;;;19.92;49.69;99664.41;5062532;28;20025;-70
2022/09/28 11:39:42;;;;;;;4.28;1.17;;;;;;;20.00;49.74;99684.72;5062418;28;20032;-70
2022/09/28 11:42:16;;;;;;;2.42;0.90;;;;;;;20.04;49.70;99678.91;5062484;28;20679;-72
2022/09/28 11:44:45;;;;;;;2.90;1.00;;;;;;;20.08;49.34;99677.59;5062980;28;20457;-70
2022/09/28 11:47:48;;;;;;;4.28;1.00;;;;;;;20.10;49.40;99677.44;5061428;28;20118;-68
2022/09/28 11:50:21;;;;;;;3.08;1.10;;;;;;;20.06;49.79;99673.47;5062447;28;20752;-72
2022/09/28 11:52:54;;;;;;;2.83;0.90;;;;;;;19.98;49.65;99660.25;5062369;28;20615;-69
2022/09/28 11:55:44;;;;;;;2.53;0.90;;;;;;;20.01;49.39;99674.00;5062879;28;20028;-69
2022/09/28 11:58:41;;;;;;;4.70;1.10;;;;;;;20.02;49.65;99680.09;5061656;28;20020;-66
2022/09/28 12:01:44;;;;;;;4.13;1.00;;;;;;;20.04;49.76;99691.31;5059513;28;20040;-70